sensor_id;sensor_type;location;lat;lon;timestamp;P1;durP1;ratioP1;P2;durP2;ratioP2
19794;SDS011;10057;59.402;17.866;2022-07-06T00:01:50;5.70;;;0.83;;
19794;SDS011;10057;59.402;17.866;2022-07-06T00:04:20;2.10;;;0.40;;
19794;SDS011;10057;59.402;17.866;2022-07-06T00:06:47;1.80;;;0.40;;
19794;SDS011;10057;59.402;17.866;2022-07-06T00:09:15;5.57;;;0.77;;
19794;SDS011;10057;59.402;17.866;2022-07-06T00:11:41;3.60;;;0.60;;
19794;SDS011;10057;59.402;17.866;2022-07-06T00:14:08;4.57;;;0.60;;
19794;SDS011;10057;59.402;17.866;2022-07-06T00:16:35;3.83;;;0.60;;
19794;SDS011;10057;59.402;17.866;2022-07-06T00:19:02;1.87;;;0.50;;
19794;SDS011;10057;59.402;17.866;2022-07-06T00:21:29;0.97;;;0.40;;
19794;SDS011;10057;59.402;17.866;2022-07-06T00:23:55;1.90;;;0.50;;
19794;SDS011;10057;59.402;17.866;2022-07-06T00:26:22;4.10;;;0.40;;
19794;SDS011;10057;59.402;17.866;2022-07-06T00:28:48;3.80;;;1.17;;
19794;SDS011;10057;59.402;17.866;2022-07-06T00:31:15;4.10;;;0.70;;
19794;SDS011;10057;59.402;17.866;2022-07-06T00:33:42;1.20;;;0.43;;
19794;SDS011;10057;59.402;17.866;2022-07-06T00:36:08;4.17;;;0.70;;
19794;SDS011;10057;59.402;17.866;2022-07-06T00:38:35;2.60;;;0.50;;
19794;SDS011;10057;59.402;17.866;2022-07-06T00:41:02;2.63;;;0.67;;
19794;SDS011;10057;59.402;17.866;2022-07-06T00:43:28;0.80;;;0.43;;
19794;SDS011;10057;59.402;17.866;2022-07-06T00:46:12;2.37;;;0.50;;
19794;SDS011;10057;59.402;17.866;2022-07-06T00:48:38;3.70;;;0.60;;
19794;SDS011;10057;59.402;17.866;2022-07-06T00:51:05;2.13;;;0.47;;
19794;SDS011;10057;59.402;17.866;2022-07-06T00:53:31;3.03;;;0.50;;
19794;SDS011;10057;59.402;17.866;2022-07-06T00:55:58;2.23;;;0.40;;
19794;SDS011;10057;59.402;17.866;2022-07-06T00:58:25;0.97;;;0.53;;
19794;SDS011;10057;59.402;17.866;2022-07-06T01:00:51;2.87;;;0.60;;
19794;SDS011;10057;59.402;17.866;2022-07-06T01:03:18;2.33;;;0.50;;
19794;SDS011;10057;59.402;17.866;2022-07-06T01:05:45;3.30;;;0.50;;
19794;SDS011;10057;59.402;17.866;2022-07-06T01:08:11;3.70;;;0.60;;
19794;SDS011;10057;59.402;17.866;2022-07-06T01:10:38;3.70;;;0.80;;
19794;SDS011;10057;59.402;17.866;2022-07-06T01:13:05;5.60;;;0.80;;
19794;SDS011;10057;59.402;17.866;2022-07-06T01:15:31;6.97;;;0.80;;
19794;SDS011;10057;59.402;17.866;2022-07-06T01:17:58;5.97;;;0.90;;
19794;SDS011;10057;59.402;17.866;2022-07-06T01:20:26;1.37;;;0.50;;
19794;SDS011;10057;59.402;17.866;2022-07-06T01:22:53;3.50;;;0.50;;
19794;SDS011;10057;59.402;17.866;2022-07-06T01:25:22;1.33;;;0.60;;
19794;SDS011;10057;59.402;17.866;2022-07-06T01:27:48;5.30;;;0.70;;
19794;SDS011;10057;59.402;17.866;2022-07-06T01:30:15;4.20;;;0.80;;
19794;SDS011;10057;59.402;17.866;2022-07-06T01:32:44;4.73;;;0.80;;
19794;SDS011;10057;59.402;17.866;2022-07-06T01:35:13;2.83;;;0.70;;
19794;SDS011;10057;59.402;17.866;2022-07-06T01:37:41;1.83;;;0.57;;
19794;SDS011;10057;59.402;17.866;2022-07-06T01:40:09;3.43;;;1.27;;
19794;SDS011;10057;59.402;17.866;2022-07-06T01:42:37;2.83;;;0.70;;
19794;SDS011;10057;59.402;17.866;2022-07-06T01:45:04;4.50;;;0.97;;
19794;SDS011;10057;59.402;17.866;2022-07-06T01:47:31;2.87;;;0.63;;
19794;SDS011;10057;59.402;17.866;2022-07-06T01:50:04;2.13;;;0.60;;
19794;SDS011;10057;59.402;17.866;2022-07-06T01:52:32;3.00;;;0.70;;
19794;SDS011;10057;59.402;17.866;2022-07-06T01:54:59;3.53;;;0.73;;
19794;SDS011;10057;59.402;17.866;2022-07-06T01:57:26;2.47;;;0.70;;
19794;SDS011;10057;59.402;17.866;2022-07-06T01:59:52;4.43;;;0.57;;
19794;SDS011;10057;59.402;17.866;2022-07-06T02:02:19;5.30;;;0.90;;
19794;SDS011;10057;59.402;17.866;2022-07-06T02:04:45;6.90;;;0.90;;
19794;SDS011;10057;59.402;17.866;2022-07-06T02:07:12;4.33;;;0.70;;
19794;SDS011;10057;59.402;17.866;2022-07-06T02:09:38;2.63;;;0.50;;
19794;SDS011;10057;59.402;17.866;2022-07-06T02:12:05;3.40;;;0.80;;
19794;SDS011;10057;59.402;17.866;2022-07-06T02:14:32;6.63;;;0.70;;
19794;SDS011;10057;59.402;17.866;2022-07-06T02:16:58;3.13;;;0.60;;
19794;SDS011;10057;59.402;17.866;2022-07-06T02:19:25;3.57;;;0.70;;
19794;SDS011;10057;59.402;17.866;2022-07-06T02:21:52;3.80;;;0.83;;
19794;SDS011;10057;59.402;17.866;2022-07-06T02:24:18;3.90;;;0.80;;
19794;SDS011;10057;59.402;17.866;2022-07-06T02:26:45;7.83;;;0.70;;
19794;SDS011;10057;59.402;17.866;2022-07-06T02:29:12;3.07;;;0.63;;
19794;SDS011;10057;59.402;17.866;2022-07-06T02:31:39;3.70;;;0.73;;
19794;SDS011;10057;59.402;17.866;2022-07-06T02:34:05;5.30;;;1.03;;
19794;SDS011;10057;59.402;17.866;2022-07-06T02:36:32;3.73;;;1.10;;
19794;SDS011;10057;59.402;17.866;2022-07-06T02:38:59;3.67;;;0.70;;
19794;SDS011;10057;59.402;17.866;2022-07-06T02:41:25;3.87;;;0.80;;
19794;SDS011;10057;59.402;17.866;2022-07-06T02:43:52;1.63;;;0.60;;
19794;SDS011;10057;59.402;17.866;2022-07-06T02:46:19;4.70;;;0.80;;
19794;SDS011;10057;59.402;17.866;2022-07-06T02:48:45;6.03;;;1.00;;
19794;SDS011;10057;59.402;17.866;2022-07-06T02:51:12;4.87;;;0.90;;
19794;SDS011;10057;59.402;17.866;2022-07-06T02:53:38;7.40;;;0.83;;
19794;SDS011;10057;59.402;17.866;2022-07-06T02:56:05;6.63;;;0.70;;
19794;SDS011;10057;59.402;17.866;2022-07-06T02:58:32;4.53;;;0.80;;
19794;SDS011;10057;59.402;17.866;2022-07-06T03:00:58;2.67;;;0.70;;
19794;SDS011;10057;59.402;17.866;2022-07-06T03:03:25;2.87;;;0.77;;
19794;SDS011;10057;59.402;17.866;2022-07-06T03:05:52;5.50;;;0.90;;
19794;SDS011;10057;59.402;17.866;2022-07-06T03:08:19;3.97;;;0.90;;
19794;SDS011;10057;59.402;17.866;2022-07-06T03:10:46;6.27;;;1.00;;
19794;SDS011;10057;59.402;17.866;2022-07-06T03:13:12;5.53;;;0.80;;
19794;SDS011;10057;59.402;17.866;2022-07-06T03:15:39;6.57;;;0.93;;
19794;SDS011;10057;59.402;17.866;2022-07-06T03:18:06;4.00;;;0.70;;
19794;SDS011;10057;59.402;17.866;2022-07-06T03:20:32;4.87;;;0.80;;
19794;SDS011;10057;59.402;17.866;2022-07-06T03:22:59;5.20;;;1.00;;
19794;SDS011;10057;59.402;17.866;2022-07-06T03:25:26;3.67;;;0.77;;
19794;SDS011;10057;59.402;17.866;2022-07-06T03:27:52;8.53;;;1.03;;
19794;SDS011;10057;59.402;17.866;2022-07-06T03:30:19;2.43;;;0.80;;
19794;SDS011;10057;59.402;17.866;2022-07-06T03:32:45;5.53;;;0.80;;
19794;SDS011;10057;59.402;17.866;2022-07-06T03:35:12;4.80;;;0.80;;
19794;SDS011;10057;59.402;17.866;2022-07-06T03:37:39;4.37;;;0.80;;
19794;SDS011;10057;59.402;17.866;2022-07-06T03:40:05;6.70;;;1.00;;
19794;SDS011;10057;59.402;17.866;2022-07-06T03:42:32;6.30;;;0.70;;
19794;SDS011;10057;59.402;17.866;2022-07-06T03:44:59;7.80;;;0.97;;
19794;SDS011;10057;59.402;17.866;2022-07-06T03:47:26;4.10;;;0.97;;
19794;SDS011;10057;59.402;17.866;2022-07-06T03:49:52;4.00;;;0.97;;
19794;SDS011;10057;59.402;17.866;2022-07-06T03:52:19;2.70;;;0.80;;
19794;SDS011;10057;59.402;17.866;2022-07-06T03:54:45;2.23;;;0.70;;
19794;SDS011;10057;59.402;17.866;2022-07-06T03:57:12;2.37;;;0.70;;
19794;SDS011;10057;59.402;17.866;2022-07-06T03:59:39;3.53;;;0.80;;
19794;SDS011;10057;59.402;17.866;2022-07-06T04:02:06;4.30;;;0.90;;
19794;SDS011;10057;59.402;17.866;2022-07-06T04:04:33;4.33;;;0.90;;
19794;SDS011;10057;59.402;17.866;2022-07-06T04:07:01;4.43;;;1.10;;
19794;SDS011;10057;59.402;17.866;2022-07-06T04:09:28;10.10;;;0.83;;
19794;SDS011;10057;59.402;17.866;2022-07-06T04:11:54;1.63;;;0.70;;
19794;SDS011;10057;59.402;17.866;2022-07-06T04:14:21;5.57;;;0.70;;
19794;SDS011;10057;59.402;17.866;2022-07-06T04:16:53;4.17;;;1.00;;
19794;SDS011;10057;59.402;17.866;2022-07-06T04:19:20;2.73;;;0.70;;
19794;SDS011;10057;59.402;17.866;2022-07-06T04:21:46;7.50;;;1.10;;
19794;SDS011;10057;59.402;17.866;2022-07-06T04:24:13;4.07;;;1.20;;
19794;SDS011;10057;59.402;17.866;2022-07-06T04:26:40;6.33;;;1.20;;
19794;SDS011;10057;59.402;17.866;2022-07-06T04:29:06;6.27;;;0.90;;
19794;SDS011;10057;59.402;17.866;2022-07-06T04:31:36;2.07;;;0.80;;
19794;SDS011;10057;59.402;17.866;2022-07-06T04:34:02;7.97;;;1.00;;
19794;SDS011;10057;59.402;17.866;2022-07-06T04:36:29;3.70;;;1.00;;
19794;SDS011;10057;59.402;17.866;2022-07-06T04:38:56;4.30;;;0.97;;
19794;SDS011;10057;59.402;17.866;2022-07-06T04:41:22;7.03;;;0.93;;
19794;SDS011;10057;59.402;17.866;2022-07-06T04:43:49;2.90;;;0.80;;
19794;SDS011;10057;59.402;17.866;2022-07-06T04:46:16;3.63;;;0.97;;
19794;SDS011;10057;59.402;17.866;2022-07-06T04:48:43;8.20;;;1.10;;
19794;SDS011;10057;59.402;17.866;2022-07-06T04:51:09;10.20;;;1.00;;
19794;SDS011;10057;59.402;17.866;2022-07-06T04:53:36;2.23;;;0.80;;
19794;SDS011;10057;59.402;17.866;2022-07-06T04:56:03;6.40;;;1.17;;
19794;SDS011;10057;59.402;17.866;2022-07-06T04:58:30;5.27;;;0.80;;
19794;SDS011;10057;59.402;17.866;2022-07-06T05:00:56;5.10;;;0.90;;
19794;SDS011;10057;59.402;17.866;2022-07-06T05:03:23;3.43;;;0.90;;
19794;SDS011;10057;59.402;17.866;2022-07-06T05:05:50;6.37;;;1.00;;
19794;SDS011;10057;59.402;17.866;2022-07-06T05:08:19;6.70;;;1.00;;
19794;SDS011;10057;59.402;17.866;2022-07-06T05:10:47;3.80;;;1.07;;
19794;SDS011;10057;59.402;17.866;2022-07-06T05:13:14;4.17;;;0.80;;
19794;SDS011;10057;59.402;17.866;2022-07-06T05:15:41;3.77;;;1.00;;
19794;SDS011;10057;59.402;17.866;2022-07-06T05:18:08;1.90;;;0.63;;
19794;SDS011;10057;59.402;17.866;2022-07-06T05:20:34;3.33;;;0.80;;
19794;SDS011;10057;59.402;17.866;2022-07-06T05:23:01;6.13;;;1.30;;
19794;SDS011;10057;59.402;17.866;2022-07-06T05:25:27;3.70;;;0.93;;
19794;SDS011;10057;59.402;17.866;2022-07-06T05:27:54;2.80;;;1.00;;
19794;SDS011;10057;59.402;17.866;2022-07-06T05:30:21;4.40;;;1.07;;
19794;SDS011;10057;59.402;17.866;2022-07-06T05:32:47;4.53;;;0.90;;
19794;SDS011;10057;59.402;17.866;2022-07-06T05:35:14;5.93;;;1.10;;
19794;SDS011;10057;59.402;17.866;2022-07-06T05:38:00;6.53;;;1.20;;
19794;SDS011;10057;59.402;17.866;2022-07-06T05:40:27;5.00;;;1.10;;
19794;SDS011;10057;59.402;17.866;2022-07-06T05:42:54;3.07;;;1.00;;
19794;SDS011;10057;59.402;17.866;2022-07-06T05:45:20;6.73;;;1.20;;
19794;SDS011;10057;59.402;17.866;2022-07-06T05:47:48;3.70;;;1.30;;
19794;SDS011;10057;59.402;17.866;2022-07-06T05:50:33;5.10;;;1.00;;
19794;SDS011;10057;59.402;17.866;2022-07-06T05:53:02;4.43;;;1.07;;
19794;SDS011;10057;59.402;17.866;2022-07-06T05:55:44;5.73;;;1.00;;
19794;SDS011;10057;59.402;17.866;2022-07-06T05:58:11;3.83;;;0.83;;
19794;SDS011;10057;59.402;17.866;2022-07-06T06:00:37;3.13;;;0.80;;
19794;SDS011;10057;59.402;17.866;2022-07-06T06:03:04;4.87;;;1.00;;
19794;SDS011;10057;59.402;17.866;2022-07-06T06:05:31;6.30;;;1.10;;
19794;SDS011;10057;59.402;17.866;2022-07-06T06:07:57;3.47;;;1.00;;
19794;SDS011;10057;59.402;17.866;2022-07-06T06:10:24;12.10;;;1.10;;
19794;SDS011;10057;59.402;17.866;2022-07-06T06:12:51;5.73;;;0.93;;
19794;SDS011;10057;59.402;17.866;2022-07-06T06:15:18;4.07;;;0.83;;
19794;SDS011;10057;59.402;17.866;2022-07-06T06:17:45;5.53;;;0.97;;
19794;SDS011;10057;59.402;17.866;2022-07-06T06:20:12;4.53;;;0.90;;
19794;SDS011;10057;59.402;17.866;2022-07-06T06:22:57;4.10;;;0.90;;
19794;SDS011;10057;59.402;17.866;2022-07-06T06:25:34;3.63;;;0.90;;
19794;SDS011;10057;59.402;17.866;2022-07-06T06:28:03;4.53;;;0.90;;
19794;SDS011;10057;59.402;17.866;2022-07-06T06:30:31;8.20;;;1.07;;
19794;SDS011;10057;59.402;17.866;2022-07-06T06:33:11;3.77;;;0.90;;
19794;SDS011;10057;59.402;17.866;2022-07-06T06:35:43;2.70;;;0.70;;
19794;SDS011;10057;59.402;17.866;2022-07-06T06:38:11;5.07;;;1.10;;
19794;SDS011;10057;59.402;17.866;2022-07-06T06:40:38;3.30;;;1.27;;
19794;SDS011;10057;59.402;17.866;2022-07-06T06:43:04;5.97;;;1.00;;
19794;SDS011;10057;59.402;17.866;2022-07-06T06:45:31;8.20;;;1.00;;
19794;SDS011;10057;59.402;17.866;2022-07-06T06:47:58;3.37;;;0.87;;
19794;SDS011;10057;59.402;17.866;2022-07-06T06:50:25;4.03;;;0.80;;
19794;SDS011;10057;59.402;17.866;2022-07-06T06:52:52;2.50;;;0.70;;
19794;SDS011;10057;59.402;17.866;2022-07-06T06:55:19;5.57;;;1.07;;
19794;SDS011;10057;59.402;17.866;2022-07-06T06:57:45;6.43;;;1.00;;
19794;SDS011;10057;59.402;17.866;2022-07-06T07:00:12;9.83;;;1.10;;
19794;SDS011;10057;59.402;17.866;2022-07-06T07:02:40;2.97;;;0.90;;
19794;SDS011;10057;59.402;17.866;2022-07-06T07:05:07;4.30;;;1.10;;
19794;SDS011;10057;59.402;17.866;2022-07-06T07:07:34;4.77;;;1.20;;
19794;SDS011;10057;59.402;17.866;2022-07-06T07:10:01;3.33;;;0.97;;
19794;SDS011;10057;59.402;17.866;2022-07-06T07:12:29;7.93;;;1.10;;
19794;SDS011;10057;59.402;17.866;2022-07-06T07:14:56;2.97;;;1.00;;
19794;SDS011;10057;59.402;17.866;2022-07-06T07:17:22;8.87;;;1.30;;
19794;SDS011;10057;59.402;17.866;2022-07-06T07:19:49;5.07;;;1.03;;
19794;SDS011;10057;59.402;17.866;2022-07-06T07:22:15;6.53;;;1.00;;
19794;SDS011;10057;59.402;17.866;2022-07-06T07:24:42;4.47;;;1.03;;
19794;SDS011;10057;59.402;17.866;2022-07-06T07:27:09;8.17;;;1.57;;
19794;SDS011;10057;59.402;17.866;2022-07-06T07:29:35;3.33;;;0.80;;
19794;SDS011;10057;59.402;17.866;2022-07-06T07:32:02;7.80;;;1.13;;
19794;SDS011;10057;59.402;17.866;2022-07-06T07:34:29;5.03;;;1.40;;
19794;SDS011;10057;59.402;17.866;2022-07-06T07:36:55;6.57;;;1.07;;
19794;SDS011;10057;59.402;17.866;2022-07-06T07:39:22;4.27;;;0.93;;
19794;SDS011;10057;59.402;17.866;2022-07-06T07:41:48;5.50;;;0.90;;
19794;SDS011;10057;59.402;17.866;2022-07-06T07:44:16;2.67;;;0.70;;
19794;SDS011;10057;59.402;17.866;2022-07-06T07:46:43;3.50;;;0.77;;
19794;SDS011;10057;59.402;17.866;2022-07-06T07:49:10;2.47;;;0.80;;
19794;SDS011;10057;59.402;17.866;2022-07-06T07:51:42;5.90;;;1.00;;
19794;SDS011;10057;59.402;17.866;2022-07-06T07:54:09;4.90;;;1.03;;
19794;SDS011;10057;59.402;17.866;2022-07-06T07:56:35;1.47;;;0.60;;
19794;SDS011;10057;59.402;17.866;2022-07-06T07:59:02;4.87;;;0.90;;
19794;SDS011;10057;59.402;17.866;2022-07-06T08:01:28;5.13;;;0.87;;
19794;SDS011;10057;59.402;17.866;2022-07-06T08:03:55;4.53;;;0.60;;
19794;SDS011;10057;59.402;17.866;2022-07-06T08:06:22;4.80;;;0.70;;
19794;SDS011;10057;59.402;17.866;2022-07-06T08:08:49;4.27;;;0.90;;
19794;SDS011;10057;59.402;17.866;2022-07-06T08:11:15;3.97;;;0.70;;
19794;SDS011;10057;59.402;17.866;2022-07-06T08:13:44;5.43;;;0.93;;
19794;SDS011;10057;59.402;17.866;2022-07-06T08:16:11;7.20;;;1.00;;
19794;SDS011;10057;59.402;17.866;2022-07-06T08:18:38;4.43;;;0.80;;
19794;SDS011;10057;59.402;17.866;2022-07-06T08:21:05;3.20;;;0.90;;
19794;SDS011;10057;59.402;17.866;2022-07-06T08:23:50;3.40;;;0.87;;
19794;SDS011;10057;59.402;17.866;2022-07-06T08:26:17;6.00;;;0.97;;
19794;SDS011;10057;59.402;17.866;2022-07-06T08:28:44;4.50;;;0.97;;
19794;SDS011;10057;59.402;17.866;2022-07-06T08:31:11;3.47;;;0.73;;
19794;SDS011;10057;59.402;17.866;2022-07-06T08:33:58;2.27;;;0.60;;
19794;SDS011;10057;59.402;17.866;2022-07-06T08:36:25;2.43;;;0.73;;
19794;SDS011;10057;59.402;17.866;2022-07-06T08:38:52;1.10;;;0.80;;
19794;SDS011;10057;59.402;17.866;2022-07-06T08:41:21;2.30;;;0.80;;
19794;SDS011;10057;59.402;17.866;2022-07-06T08:43:54;4.00;;;0.60;;
19794;SDS011;10057;59.402;17.866;2022-07-06T08:46:21;3.47;;;0.70;;
19794;SDS011;10057;59.402;17.866;2022-07-06T08:48:49;3.57;;;0.70;;
19794;SDS011;10057;59.402;17.866;2022-07-06T08:51:16;3.87;;;0.80;;
19794;SDS011;10057;59.402;17.866;2022-07-06T08:53:43;2.57;;;0.50;;
19794;SDS011;10057;59.402;17.866;2022-07-06T08:56:11;2.87;;;0.60;;
19794;SDS011;10057;59.402;17.866;2022-07-06T08:58:38;2.43;;;0.60;;
19794;SDS011;10057;59.402;17.866;2022-07-06T09:01:11;2.97;;;0.60;;
19794;SDS011;10057;59.402;17.866;2022-07-06T09:03:39;4.40;;;0.80;;
19794;SDS011;10057;59.402;17.866;2022-07-06T09:06:07;2.33;;;0.70;;
19794;SDS011;10057;59.402;17.866;2022-07-06T09:08:35;2.47;;;0.60;;
19794;SDS011;10057;59.402;17.866;2022-07-06T09:11:05;4.67;;;0.87;;
19794;SDS011;10057;59.402;17.866;2022-07-06T09:13:31;3.53;;;0.80;;
19794;SDS011;10057;59.402;17.866;2022-07-06T09:16:14;2.87;;;0.70;;
19794;SDS011;10057;59.402;17.866;2022-07-06T09:19:02;6.77;;;0.90;;
19794;SDS011;10057;59.402;17.866;2022-07-06T09:21:29;2.33;;;0.87;;
19794;SDS011;10057;59.402;17.866;2022-07-06T09:24:00;5.93;;;0.80;;
19794;SDS011;10057;59.402;17.866;2022-07-06T09:26:30;2.73;;;0.70;;
19794;SDS011;10057;59.402;17.866;2022-07-06T09:28:57;1.70;;;1.00;;
19794;SDS011;10057;59.402;17.866;2022-07-06T09:31:26;1.63;;;0.77;;
19794;SDS011;10057;59.402;17.866;2022-07-06T09:34:00;2.00;;;0.90;;
19794;SDS011;10057;59.402;17.866;2022-07-06T09:36:48;1.93;;;0.73;;
19794;SDS011;10057;59.402;17.866;2022-07-06T09:41:47;3.67;;;0.60;;
19794;SDS011;10057;59.402;17.866;2022-07-06T09:44:25;5.90;;;0.70;;
19794;SDS011;10057;59.402;17.866;2022-07-06T09:46:59;1.33;;;0.60;;
19794;SDS011;10057;59.402;17.866;2022-07-06T09:49:27;2.20;;;0.60;;
19794;SDS011;10057;59.402;17.866;2022-07-06T09:51:56;4.30;;;0.70;;
19794;SDS011;10057;59.402;17.866;2022-07-06T09:54:24;2.57;;;0.50;;
19794;SDS011;10057;59.402;17.866;2022-07-06T09:56:51;2.60;;;0.57;;
19794;SDS011;10057;59.402;17.866;2022-07-06T09:59:20;5.13;;;0.70;;
19794;SDS011;10057;59.402;17.866;2022-07-06T10:01:50;1.77;;;0.70;;
19794;SDS011;10057;59.402;17.866;2022-07-06T10:04:18;2.93;;;0.83;;
19794;SDS011;10057;59.402;17.866;2022-07-06T10:06:47;2.40;;;0.60;;
19794;SDS011;10057;59.402;17.866;2022-07-06T10:09:15;2.17;;;0.60;;
19794;SDS011;10057;59.402;17.866;2022-07-06T10:11:42;4.70;;;0.70;;
19794;SDS011;10057;59.402;17.866;2022-07-06T10:14:15;2.20;;;0.70;;
19794;SDS011;10057;59.402;17.866;2022-07-06T10:16:44;1.83;;;0.60;;
19794;SDS011;10057;59.402;17.866;2022-07-06T10:19:13;3.27;;;0.70;;
19794;SDS011;10057;59.402;17.866;2022-07-06T10:21:41;4.00;;;0.73;;
19794;SDS011;10057;59.402;17.866;2022-07-06T10:24:09;2.00;;;0.70;;
19794;SDS011;10057;59.402;17.866;2022-07-06T10:26:35;2.13;;;0.80;;
19794;SDS011;10057;59.402;17.866;2022-07-06T10:29:03;3.03;;;0.90;;
19794;SDS011;10057;59.402;17.866;2022-07-06T10:31:30;1.50;;;0.60;;
19794;SDS011;10057;59.402;17.866;2022-07-06T10:33:59;3.23;;;0.70;;
19794;SDS011;10057;59.402;17.866;2022-07-06T10:36:28;3.07;;;0.70;;
19794;SDS011;10057;59.402;17.866;2022-07-06T10:38:54;3.83;;;0.50;;
19794;SDS011;10057;59.402;17.866;2022-07-06T10:41:32;1.67;;;0.60;;
19794;SDS011;10057;59.402;17.866;2022-07-06T10:44:21;2.13;;;0.60;;
19794;SDS011;10057;59.402;17.866;2022-07-06T10:46:52;2.30;;;0.37;;
19794;SDS011;10057;59.402;17.866;2022-07-06T10:49:23;3.57;;;0.80;;
19794;SDS011;10057;59.402;17.866;2022-07-06T10:52:11;1.77;;;1.00;;
19794;SDS011;10057;59.402;17.866;2022-07-06T10:54:42;1.20;;;0.50;;
19794;SDS011;10057;59.402;17.866;2022-07-06T10:57:10;1.80;;;0.60;;
19794;SDS011;10057;59.402;17.866;2022-07-06T10:59:41;0.73;;;0.40;;
19794;SDS011;10057;59.402;17.866;2022-07-06T11:02:26;4.67;;;0.43;;
19794;SDS011;10057;59.402;17.866;2022-07-06T11:04:53;1.23;;;0.43;;
19794;SDS011;10057;59.402;17.866;2022-07-06T11:07:20;1.63;;;0.53;;
19794;SDS011;10057;59.402;17.866;2022-07-06T11:09:54;1.93;;;0.90;;
19794;SDS011;10057;59.402;17.866;2022-07-06T11:12:22;2.20;;;0.73;;
19794;SDS011;10057;59.402;17.866;2022-07-06T11:14:49;3.23;;;0.60;;
19794;SDS011;10057;59.402;17.866;2022-07-06T11:17:17;2.33;;;0.50;;
19794;SDS011;10057;59.402;17.866;2022-07-06T11:19:48;2.73;;;0.70;;
19794;SDS011;10057;59.402;17.866;2022-07-06T11:22:17;2.33;;;0.60;;
19794;SDS011;10057;59.402;17.866;2022-07-06T11:24:45;2.40;;;0.50;;
19794;SDS011;10057;59.402;17.866;2022-07-06T11:27:12;3.10;;;0.60;;
19794;SDS011;10057;59.402;17.866;2022-07-06T11:29:39;3.40;;;0.57;;
19794;SDS011;10057;59.402;17.866;2022-07-06T11:32:06;0.93;;;0.50;;
19794;SDS011;10057;59.402;17.866;2022-07-06T11:34:36;3.00;;;0.88;;
19794;SDS011;10057;59.402;17.866;2022-07-06T11:37:06;4.00;;;0.70;;
19794;SDS011;10057;59.402;17.866;2022-07-06T11:39:41;1.20;;;0.60;;
19794;SDS011;10057;59.402;17.866;2022-07-06T11:42:09;3.38;;;0.77;;
19794;SDS011;10057;59.402;17.866;2022-07-06T11:44:37;1.40;;;0.57;;
19794;SDS011;10057;59.402;17.866;2022-07-06T11:47:04;2.30;;;0.67;;
19794;SDS011;10057;59.402;17.866;2022-07-06T11:49:33;2.25;;;0.50;;
19794;SDS011;10057;59.402;17.866;2022-07-06T11:52:05;2.13;;;0.60;;
19794;SDS011;10057;59.402;17.866;2022-07-06T11:54:33;2.10;;;0.70;;
19794;SDS011;10057;59.402;17.866;2022-07-06T11:57:00;1.05;;;0.47;;
19794;SDS011;10057;59.402;17.866;2022-07-06T11:59:28;1.95;;;0.60;;
19794;SDS011;10057;59.402;17.866;2022-07-06T12:02:06;1.63;;;0.75;;
19794;SDS011;10057;59.402;17.866;2022-07-06T12:04:39;1.70;;;0.50;;
19794;SDS011;10057;59.402;17.866;2022-07-06T12:07:08;1.75;;;0.70;;
19794;SDS011;10057;59.402;17.866;2022-07-06T12:09:38;4.38;;;0.60;;
19794;SDS011;10057;59.402;17.866;2022-07-06T12:12:06;1.90;;;0.50;;
19794;SDS011;10057;59.402;17.866;2022-07-06T12:14:35;0.88;;;0.45;;
19794;SDS011;10057;59.402;17.866;2022-07-06T12:17:04;1.40;;;0.50;;
19794;SDS011;10057;59.402;17.866;2022-07-06T12:19:36;3.25;;;0.80;;
19794;SDS011;10057;59.402;17.866;2022-07-06T12:22:03;1.40;;;0.50;;
19794;SDS011;10057;59.402;17.866;2022-07-06T12:24:31;1.53;;;0.70;;
19794;SDS011;10057;59.402;17.866;2022-07-06T12:27:09;1.55;;;0.55;;
19794;SDS011;10057;59.402;17.866;2022-07-06T12:29:40;1.10;;;0.50;;
19794;SDS011;10057;59.402;17.866;2022-07-06T12:32:07;4.57;;;0.60;;
19794;SDS011;10057;59.402;17.866;2022-07-06T12:34:43;1.65;;;0.40;;
19794;SDS011;10057;59.402;17.866;2022-07-06T12:37:11;11.87;;;0.60;;
19794;SDS011;10057;59.402;17.866;2022-07-06T12:39:42;2.20;;;0.50;;
19794;SDS011;10057;59.402;17.866;2022-07-06T12:42:12;1.43;;;0.50;;
19794;SDS011;10057;59.402;17.866;2022-07-06T12:44:46;2.90;;;0.40;;
19794;SDS011;10057;59.402;17.866;2022-07-06T12:47:22;1.80;;;0.40;;
19794;SDS011;10057;59.402;17.866;2022-07-06T12:50:07;1.57;;;0.50;;
19794;SDS011;10057;59.402;17.866;2022-07-06T12:52:35;1.25;;;0.40;;
19794;SDS011;10057;59.402;17.866;2022-07-06T12:55:04;3.05;;;0.50;;
19794;SDS011;10057;59.402;17.866;2022-07-06T12:57:45;3.90;;;0.55;;
19794;SDS011;10057;59.402;17.866;2022-07-06T13:00:15;1.50;;;0.60;;
19794;SDS011;10057;59.402;17.866;2022-07-06T13:02:44;2.80;;;0.60;;
19794;SDS011;10057;59.402;17.866;2022-07-06T13:05:32;2.17;;;0.52;;
19794;SDS011;10057;59.402;17.866;2022-07-06T13:07:59;2.47;;;0.60;;
19794;SDS011;10057;59.402;17.866;2022-07-06T13:10:28;6.45;;;0.85;;
19794;SDS011;10057;59.402;17.866;2022-07-06T13:12:57;1.75;;;0.50;;
19794;SDS011;10057;59.402;17.866;2022-07-06T13:15:24;0.60;;;0.40;;
19794;SDS011;10057;59.402;17.866;2022-07-06T13:17:51;3.63;;;0.50;;
19794;SDS011;10057;59.402;17.866;2022-07-06T13:20:21;2.35;;;0.43;;
19794;SDS011;10057;59.402;17.866;2022-07-06T13:22:47;2.45;;;0.43;;
19794;SDS011;10057;59.402;17.866;2022-07-06T13:25:15;0.70;;;0.30;;
19794;SDS011;10057;59.402;17.866;2022-07-06T13:27:42;2.70;;;0.37;;
19794;SDS011;10057;59.402;17.866;2022-07-06T13:30:10;1.60;;;0.40;;
19794;SDS011;10057;59.402;17.866;2022-07-06T13:32:37;1.20;;;0.30;;
19794;SDS011;10057;59.402;17.866;2022-07-06T13:35:08;1.40;;;0.30;;
19794;SDS011;10057;59.402;17.866;2022-07-06T13:37:36;1.97;;;0.40;;
19794;SDS011;10057;59.402;17.866;2022-07-06T13:40:03;1.00;;;0.30;;
19794;SDS011;10057;59.402;17.866;2022-07-06T13:42:36;0.67;;;0.50;;
19794;SDS011;10057;59.402;17.866;2022-07-06T13:45:02;1.43;;;0.50;;
19794;SDS011;10057;59.402;17.866;2022-07-06T13:47:29;2.20;;;0.40;;
19794;SDS011;10057;59.402;17.866;2022-07-06T13:49:56;0.83;;;0.50;;
19794;SDS011;10057;59.402;17.866;2022-07-06T13:52:23;0.83;;;0.50;;
19794;SDS011;10057;59.402;17.866;2022-07-06T13:54:49;1.03;;;0.40;;
19794;SDS011;10057;59.402;17.866;2022-07-06T13:57:16;1.20;;;0.50;;
19794;SDS011;10057;59.402;17.866;2022-07-06T13:59:42;2.33;;;0.40;;
19794;SDS011;10057;59.402;17.866;2022-07-06T14:02:09;3.10;;;0.30;;
19794;SDS011;10057;59.402;17.866;2022-07-06T14:04:36;1.07;;;0.40;;
19794;SDS011;10057;59.402;17.866;2022-07-06T14:07:03;0.83;;;0.37;;
19794;SDS011;10057;59.402;17.866;2022-07-06T14:09:30;1.03;;;0.30;;
19794;SDS011;10057;59.402;17.866;2022-07-06T14:11:56;1.77;;;0.40;;
19794;SDS011;10057;59.402;17.866;2022-07-06T14:14:23;0.50;;;0.30;;
19794;SDS011;10057;59.402;17.866;2022-07-06T14:16:49;0.93;;;0.23;;
19794;SDS011;10057;59.402;17.866;2022-07-06T14:19:17;0.70;;;0.30;;
19794;SDS011;10057;59.402;17.866;2022-07-06T14:21:47;2.93;;;0.40;;
19794;SDS011;10057;59.402;17.866;2022-07-06T14:24:14;0.82;;;0.35;;
19794;SDS011;10057;59.402;17.866;2022-07-06T14:26:44;0.98;;;0.50;;
19794;SDS011;10057;59.402;17.866;2022-07-06T14:29:10;0.38;;;0.20;;
19794;SDS011;10057;59.402;17.866;2022-07-06T14:31:37;0.52;;;0.30;;
19794;SDS011;10057;59.402;17.866;2022-07-06T14:34:04;1.02;;;0.40;;
19794;SDS011;10057;59.402;17.866;2022-07-06T14:36:31;1.73;;;0.70;;
19794;SDS011;10057;59.402;17.866;2022-07-06T14:38:59;1.48;;;0.50;;
19794;SDS011;10057;59.402;17.866;2022-07-06T14:41:26;0.95;;;0.50;;
19794;SDS011;10057;59.402;17.866;2022-07-06T14:43:53;1.60;;;0.50;;